createdAt,value
2023-03-29T00:00:34.248Z,5.20
2023-03-29T00:01:34.968Z,5.10
2023-03-29T00:02:34.352Z,5.10
2023-03-29T00:03:34.234Z,4.90
2023-03-29T00:04:34.370Z,5.30
2023-03-29T00:05:34.198Z,5.30
2023-03-29T00:06:34.170Z,5.30
2023-03-29T00:07:34.177Z,5.50
2023-03-29T00:08:34.173Z,5.90
2023-03-29T00:09:34.146Z,6.40
2023-03-29T00:10:34.161Z,5.60
2023-03-29T00:11:34.765Z,6.30
2023-03-29T00:12:34.148Z,6.20
2023-03-29T00:13:34.120Z,6.70
2023-03-29T00:14:34.107Z,7.00
2023-03-29T00:15:34.137Z,6.60
2023-03-29T00:16:34.143Z,7.90
2023-03-29T00:17:34.111Z,6.30
2023-03-29T00:18:34.076Z,6.00
2023-03-29T00:19:34.113Z,5.80
2023-03-29T00:20:34.091Z,6.10
2023-03-29T00:21:34.062Z,5.90
2023-03-29T00:22:34.072Z,5.70
2023-03-29T00:23:34.750Z,5.60
2023-03-29T00:24:34.031Z,5.50
2023-03-29T00:25:34.049Z,5.60
2023-03-29T00:26:34.025Z,5.90
2023-03-29T00:27:34.009Z,5.10
2023-03-29T00:28:34.000Z,5.40
2023-03-29T00:29:34.002Z,5.20
2023-03-29T00:30:34.007Z,5.60
2023-03-29T00:31:34.072Z,5.70
2023-03-29T00:32:34.112Z,5.70
2023-03-29T00:33:33.963Z,5.60
2023-03-29T00:34:33.977Z,5.60
2023-03-29T00:35:34.005Z,5.80
2023-03-29T00:36:33.940Z,5.80
2023-03-29T00:37:34.002Z,5.50
2023-03-29T00:38:33.969Z,5.60
2023-03-29T00:39:33.932Z,5.80
2023-03-29T00:40:33.949Z,5.50
2023-03-29T00:41:33.940Z,5.70
2023-03-29T00:42:33.933Z,5.50
2023-03-29T00:43:33.913Z,5.70
2023-03-29T00:44:33.917Z,5.60
2023-03-29T00:45:33.930Z,5.70
2023-03-29T00:46:33.894Z,5.60
2023-03-29T00:47:33.968Z,6.00
2023-03-29T00:48:33.850Z,6.00
2023-03-29T00:49:33.853Z,5.60
2023-03-29T00:50:33.867Z,5.70
2023-03-29T00:51:33.826Z,5.80
2023-03-29T00:52:33.838Z,6.50
2023-03-29T00:53:33.825Z,5.50
2023-03-29T00:54:33.797Z,5.70
2023-03-29T00:55:33.855Z,5.60
2023-03-29T00:56:33.798Z,5.80
2023-03-29T00:57:33.783Z,5.90
2023-03-29T00:58:33.781Z,6.20
2023-03-29T00:59:33.780Z,7.50
2023-03-29T01:00:33.796Z,8.70
2023-03-29T01:01:33.765Z,7.20
2023-03-29T01:02:33.796Z,7.50
2023-03-29T01:03:33.811Z,6.90
2023-03-29T01:04:33.742Z,7.30
2023-03-29T01:05:33.777Z,6.80
2023-03-29T01:06:33.776Z,6.70
2023-03-29T01:07:33.707Z,9.70
2023-03-29T01:08:33.691Z,10.60
2023-03-29T01:09:33.690Z,9.50
2023-03-29T01:10:33.691Z,8.90
2023-03-29T01:11:33.709Z,9.40
2023-03-29T01:12:33.675Z,8.70
2023-03-29T01:13:33.698Z,7.50
2023-03-29T01:14:33.657Z,7.90
2023-03-29T01:15:33.646Z,7.80
2023-03-29T01:16:33.664Z,8.00
2023-03-29T01:17:33.660Z,8.00
2023-03-29T01:18:33.650Z,7.70
2023-03-29T01:19:33.619Z,7.80
2023-03-29T01:20:33.605Z,7.70
2023-03-29T01:21:33.625Z,8.10
2023-03-29T01:22:33.606Z,7.50
2023-03-29T01:23:33.583Z,7.30
2023-03-29T01:24:33.595Z,7.90
2023-03-29T01:25:33.574Z,9.30
2023-03-29T01:26:33.603Z,9.20
2023-03-29T01:27:33.561Z,7.90
2023-03-29T01:28:33.573Z,8.20
2023-03-29T01:29:33.541Z,7.90
2023-03-29T01:30:33.536Z,7.60
2023-03-29T01:31:33.633Z,7.40
2023-03-29T01:32:33.538Z,7.10
2023-03-29T01:33:33.510Z,7.10
2023-03-29T01:34:33.501Z,7.50
2023-03-29T01:35:33.547Z,10.80
2023-03-29T01:36:33.514Z,10.40
2023-03-29T01:37:33.483Z,9.10
2023-03-29T01:38:33.469Z,10.30
2023-03-29T01:39:33.463Z,7.90
2023-03-29T01:40:33.453Z,7.90
2023-03-29T01:41:33.480Z,7.70
2023-03-29T01:42:33.441Z,7.60
2023-03-29T01:43:33.431Z,7.60
2023-03-29T01:44:33.432Z,8.20
2023-03-29T01:45:33.411Z,9.30
2023-03-29T01:46:34.521Z,9.60
2023-03-29T01:47:33.516Z,10.50
2023-03-29T01:48:33.406Z,8.40
2023-03-29T01:49:33.412Z,8.60
2023-03-29T01:50:33.380Z,8.60
2023-03-29T01:51:33.375Z,11.10
2023-03-29T01:52:33.389Z,11.90
2023-03-29T01:53:33.360Z,15.20
2023-03-29T01:54:33.356Z,15.90
2023-03-29T01:55:33.350Z,11.70
2023-03-29T01:56:33.343Z,10.00
2023-03-29T01:57:33.353Z,13.80
2023-03-29T01:58:33.326Z,14.90
2023-03-29T01:59:33.327Z,13.30
2023-03-29T02:00:33.329Z,11.20
2023-03-29T02:01:33.360Z,11.10
2023-03-29T02:02:33.421Z,11.60
2023-03-29T02:03:33.369Z,13.30
2023-03-29T02:04:33.269Z,12.20
2023-03-29T02:05:33.267Z,12.20
2023-03-29T02:06:33.293Z,11.80
2023-03-29T02:07:33.276Z,13.80
2023-03-29T02:08:33.252Z,10.70
2023-03-29T02:09:33.247Z,10.00
2023-03-29T02:10:33.266Z,10.60
2023-03-29T02:11:33.228Z,9.90
2023-03-29T02:12:33.245Z,9.20
2023-03-29T02:13:33.211Z,9.10
2023-03-29T02:14:33.203Z,9.00
2023-03-29T02:15:33.226Z,9.10
2023-03-29T02:16:33.194Z,8.90
2023-03-29T02:17:33.238Z,8.90
2023-03-29T02:18:33.174Z,9.10
2023-03-29T02:19:33.174Z,8.80
2023-03-29T02:20:33.148Z,9.20
2023-03-29T02:21:33.154Z,8.40
2023-03-29T02:22:33.167Z,9.00
2023-03-29T02:23:33.143Z,9.50
2023-03-29T02:24:33.163Z,9.40
2023-03-29T02:25:33.132Z,9.60
2023-03-29T02:26:33.122Z,9.30
2023-03-29T02:27:33.131Z,9.80
2023-03-29T02:28:33.107Z,10.00
2023-03-29T02:29:33.102Z,10.60
2023-03-29T02:30:33.092Z,10.40
2023-03-29T02:31:33.101Z,10.00
2023-03-29T02:32:33.127Z,10.40
2023-03-29T02:33:33.069Z,9.80
2023-03-29T02:34:33.053Z,9.50
2023-03-29T02:35:33.084Z,9.40
2023-03-29T02:36:33.048Z,8.80
2023-03-29T02:37:33.025Z,9.00
2023-03-29T02:38:33.047Z,8.60
2023-03-29T02:39:33.012Z,9.20
2023-03-29T02:40:33.003Z,8.70
2023-03-29T02:41:32.997Z,8.20
2023-03-29T02:42:32.998Z,8.10
2023-03-29T02:43:33.008Z,8.00
2023-03-29T02:44:32.993Z,7.50
2023-03-29T02:45:32.962Z,7.70
2023-03-29T02:46:33.004Z,7.90
2023-03-29T02:47:32.970Z,7.80
2023-03-29T02:48:33.010Z,8.30
2023-03-29T02:49:32.937Z,8.60
2023-03-29T02:50:32.929Z,9.30
2023-03-29T02:51:32.929Z,9.60
2023-03-29T02:52:32.912Z,11.00
2023-03-29T02:53:32.942Z,10.50
2023-03-29T02:54:32.895Z,9.70
2023-03-29T02:55:32.894Z,9.00
2023-03-29T02:56:32.930Z,9.30
2023-03-29T02:57:32.954Z,10.60
2023-03-29T02:58:32.908Z,10.60
2023-03-29T02:59:32.876Z,11.00
2023-03-29T03:00:32.892Z,10.50
2023-03-29T03:01:32.870Z,10.20
2023-03-29T03:02:32.941Z,10.30
2023-03-29T03:03:33.824Z,10.90
2023-03-29T03:04:32.834Z,11.70
2023-03-29T03:05:32.817Z,12.90
2023-03-29T03:06:32.826Z,11.90
2023-03-29T03:07:32.811Z,11.40
2023-03-29T03:08:32.835Z,11.50
2023-03-29T03:09:33.803Z,10.20
2023-03-29T03:10:32.833Z,11.40
2023-03-29T03:11:32.774Z,11.70
2023-03-29T03:12:32.773Z,11.40
2023-03-29T03:13:32.799Z,11.50
2023-03-29T03:14:32.783Z,10.50
2023-03-29T03:15:32.783Z,12.30
2023-03-29T03:16:32.754Z,10.80
2023-03-29T03:17:32.776Z,9.90
2023-03-29T03:18:32.755Z,9.90
2023-03-29T03:19:32.710Z,11.00
2023-03-29T03:20:32.705Z,10.80
2023-03-29T03:21:32.701Z,11.50
2023-03-29T03:22:32.684Z,12.30
2023-03-29T03:23:32.705Z,12.60
2023-03-29T03:24:32.702Z,12.30
2023-03-29T03:25:32.665Z,13.20
2023-03-29T03:26:32.657Z,12.50
2023-03-29T03:27:32.649Z,11.40
2023-03-29T03:28:32.667Z,10.40
2023-03-29T03:29:32.643Z,11.60
2023-03-29T03:30:32.628Z,10.80
2023-03-29T03:31:32.695Z,11.30
2023-03-29T03:32:32.642Z,11.10
2023-03-29T03:33:32.623Z,11.00
2023-03-29T03:34:32.587Z,11.00
2023-03-29T03:35:32.616Z,11.20
2023-03-29T03:36:32.579Z,11.50
2023-03-29T03:37:32.573Z,10.60
2023-03-29T03:38:32.584Z,11.00
2023-03-29T03:39:33.692Z,11.30
2023-03-29T03:40:32.545Z,11.10
2023-03-29T03:41:32.535Z,15.70
2023-03-29T03:42:32.528Z,11.90
2023-03-29T03:43:32.555Z,11.50
2023-03-29T03:44:32.510Z,11.90
2023-03-29T03:45:32.510Z,10.60
2023-03-29T03:46:32.490Z,12.70
2023-03-29T03:47:32.538Z,11.30
2023-03-29T03:48:32.482Z,11.50
2023-03-29T03:49:32.495Z,11.60
2023-03-29T03:50:32.474Z,12.90
2023-03-29T03:51:32.463Z,11.20
2023-03-29T03:52:32.462Z,14.00
2023-03-29T03:53:32.457Z,12.70
2023-03-29T03:54:32.462Z,11.70
2023-03-29T03:55:32.443Z,11.30
2023-03-29T03:56:32.420Z,11.10
2023-03-29T03:57:32.452Z,10.90
2023-03-29T03:58:32.401Z,11.50
2023-03-29T03:59:32.421Z,11.40
2023-03-29T04:00:32.388Z,11.20
2023-03-29T04:01:32.380Z,11.70
2023-03-29T04:02:32.447Z,12.60
2023-03-29T04:03:32.462Z,12.80
2023-03-29T04:04:32.547Z,12.20
2023-03-29T04:05:32.349Z,12.10
2023-03-29T04:06:32.355Z,12.50
2023-03-29T04:07:32.337Z,13.10
2023-03-29T04:08:32.334Z,12.90
2023-03-29T04:09:32.341Z,12.60
2023-03-29T04:10:32.323Z,12.80
2023-03-29T04:11:32.307Z,13.20
2023-03-29T04:12:32.308Z,13.50
2023-03-29T04:13:32.286Z,15.20
2023-03-29T04:14:32.297Z,17.90
2023-03-29T04:15:33.315Z,12.80
2023-03-29T04:16:32.275Z,12.90
2023-03-29T04:17:32.284Z,12.70
2023-03-29T04:18:32.349Z,13.10
2023-03-29T04:19:32.282Z,13.00
2023-03-29T04:20:32.231Z,13.40
2023-03-29T04:21:32.223Z,13.10
2023-03-29T04:22:32.211Z,13.30
2023-03-29T04:23:32.218Z,13.80
2023-03-29T04:24:32.236Z,13.20
2023-03-29T04:25:32.200Z,13.50
2023-03-29T04:26:32.187Z,13.10
2023-03-29T04:27:32.200Z,13.70
2023-03-29T04:28:32.193Z,13.90
2023-03-29T04:29:32.172Z,13.40
2023-03-29T04:30:32.202Z,13.60
2023-03-29T04:31:32.211Z,13.60
2023-03-29T04:32:32.216Z,13.30
2023-03-29T04:33:32.147Z,13.70
2023-03-29T04:34:32.133Z,14.00
2023-03-29T04:35:32.183Z,14.20
2023-03-29T04:36:32.120Z,14.40
2023-03-29T04:37:32.113Z,13.60
2023-03-29T04:38:32.117Z,14.00
2023-03-29T04:39:32.163Z,15.00
2023-03-29T04:40:32.122Z,14.30
2023-03-29T04:41:32.092Z,14.10
2023-03-29T04:42:32.082Z,14.10
2023-03-29T04:43:32.069Z,14.30
2023-03-29T04:44:32.061Z,13.60
2023-03-29T04:45:32.077Z,14.20
2023-03-29T04:46:32.122Z,15.30
2023-03-29T04:47:32.052Z,14.90
2023-03-29T04:48:33.027Z,14.90
2023-03-29T04:49:32.021Z,15.50
2023-03-29T04:50:32.046Z,15.00
2023-03-29T04:51:32.005Z,15.00
2023-03-29T04:52:32.022Z,15.30
2023-03-29T04:53:32.032Z,14.20
2023-03-29T04:54:31.988Z,15.20
2023-03-29T04:55:32.008Z,14.50
2023-03-29T04:56:31.988Z,13.90
2023-03-29T04:57:31.981Z,14.30
2023-03-29T04:58:32.668Z,13.40
2023-03-29T04:59:32.956Z,13.40
2023-03-29T05:00:31.976Z,13.50
2023-03-29T05:01:31.963Z,13.60
2023-03-29T05:02:31.953Z,13.30
2023-03-29T05:03:31.930Z,12.80
2023-03-29T05:04:31.959Z,13.20
2023-03-29T05:05:31.937Z,13.10
2023-03-29T05:06:31.892Z,12.90
2023-03-29T05:07:31.888Z,12.30
2023-03-29T05:08:31.881Z,13.30
2023-03-29T05:09:33.721Z,12.50
2023-03-29T05:10:31.893Z,12.70
2023-03-29T05:11:31.879Z,13.20
2023-03-29T05:12:31.849Z,13.00
2023-03-29T05:13:31.873Z,14.10
2023-03-29T05:14:31.845Z,13.20
2023-03-29T05:15:31.902Z,14.30
2023-03-29T05:16:31.861Z,14.60
2023-03-29T05:17:31.863Z,14.60
2023-03-29T05:18:31.822Z,15.40
2023-03-29T05:19:31.799Z,15.40
2023-03-29T05:20:31.820Z,13.80
2023-03-29T05:21:31.789Z,13.90
2023-03-29T05:22:31.772Z,13.50
2023-03-29T05:23:31.846Z,13.80
2023-03-29T05:24:31.793Z,13.40
2023-03-29T05:25:31.784Z,13.20
2023-03-29T05:26:31.744Z,12.70
2023-03-29T05:27:31.741Z,12.80
2023-03-29T05:28:31.736Z,13.20
2023-03-29T05:29:31.719Z,13.80
2023-03-29T05:30:31.738Z,13.30
2023-03-29T05:31:31.749Z,13.20
2023-03-29T05:32:31.725Z,12.50
2023-03-29T05:33:31.691Z,12.30
2023-03-29T05:34:31.699Z,13.10
2023-03-29T05:35:31.759Z,13.10
2023-03-29T05:36:31.668Z,13.00
2023-03-29T05:37:31.659Z,12.30
2023-03-29T05:38:31.653Z,13.10
2023-03-29T05:39:31.639Z,12.60
2023-03-29T05:40:31.677Z,12.80
2023-03-29T05:41:31.632Z,12.20
2023-03-29T05:42:31.620Z,12.40
2023-03-29T05:43:31.660Z,12.30
2023-03-29T05:44:31.606Z,11.80
2023-03-29T05:45:31.667Z,11.90
2023-03-29T05:46:31.592Z,11.70
2023-03-29T05:47:31.642Z,12.00
2023-03-29T05:48:31.600Z,12.30
2023-03-29T05:49:31.559Z,12.40
2023-03-29T05:50:31.583Z,11.70
2023-03-29T05:51:31.573Z,12.30
2023-03-29T05:52:31.594Z,11.50
2023-03-29T05:53:31.567Z,12.00
2023-03-29T05:54:31.545Z,12.00
2023-03-29T05:55:31.546Z,11.80
2023-03-29T05:56:31.515Z,11.50
2023-03-29T05:57:31.507Z,11.70
2023-03-29T05:58:31.538Z,11.70
2023-03-29T05:59:31.495Z,11.10
2023-03-29T06:00:31.519Z,11.30
2023-03-29T06:01:31.485Z,10.80
2023-03-29T06:02:31.552Z,11.20
2023-03-29T06:03:31.544Z,10.90
2023-03-29T06:04:31.509Z,11.00
2023-03-29T06:05:31.482Z,11.00
2023-03-29T06:06:31.447Z,11.00
2023-03-29T06:07:31.443Z,10.30
2023-03-29T06:08:31.434Z,11.40
2023-03-29T06:09:31.427Z,10.50
2023-03-29T06:10:31.442Z,11.10
2023-03-29T06:11:31.422Z,11.10
2023-03-29T06:12:31.398Z,10.90
2023-03-29T06:13:31.397Z,10.80
2023-03-29T06:14:31.443Z,11.40
2023-03-29T06:15:31.400Z,11.60
2023-03-29T06:16:31.384Z,12.00
2023-03-29T06:17:31.399Z,11.70
2023-03-29T06:18:31.373Z,12.20
2023-03-29T06:19:31.351Z,12.00
2023-03-29T06:20:31.371Z,11.60
2023-03-29T06:21:31.338Z,11.50
2023-03-29T06:22:31.341Z,11.40
2023-03-29T06:23:31.333Z,11.30
2023-03-29T06:24:31.312Z,11.10
2023-03-29T06:25:31.344Z,10.50
2023-03-29T06:26:31.302Z,10.50
2023-03-29T06:27:31.293Z,10.50
2023-03-29T06:28:31.293Z,10.00
2023-03-29T06:29:31.275Z,9.90
2023-03-29T06:30:31.267Z,9.70
2023-03-29T06:31:31.362Z,9.40
2023-03-29T06:32:31.282Z,9.20
2023-03-29T06:33:31.259Z,9.10
2023-03-29T06:34:31.289Z,9.40
2023-03-29T06:35:31.292Z,9.20
2023-03-29T06:36:31.262Z,9.20
2023-03-29T06:37:31.268Z,9.60
2023-03-29T06:38:31.214Z,9.50
2023-03-29T06:39:31.206Z,8.30
2023-03-29T06:40:31.199Z,8.30
2023-03-29T06:41:31.263Z,8.50
2023-03-29T06:42:31.182Z,8.20
2023-03-29T06:43:31.166Z,8.60
2023-03-29T06:44:31.164Z,9.00
2023-03-29T06:45:31.161Z,8.60
2023-03-29T06:46:31.235Z,8.70
2023-03-29T06:47:31.191Z,9.40
2023-03-29T06:48:31.150Z,8.50
2023-03-29T06:49:31.128Z,8.90
2023-03-29T06:50:31.126Z,8.60
2023-03-29T06:51:31.907Z,9.00
2023-03-29T06:52:31.129Z,8.80
2023-03-29T06:53:31.104Z,8.80
2023-03-29T06:54:31.340Z,9.00
2023-03-29T06:55:31.084Z,9.00
2023-03-29T06:56:31.915Z,8.60
2023-03-29T06:57:31.074Z,8.40
2023-03-29T06:58:31.166Z,8.70
2023-03-29T06:59:31.055Z,8.00
2023-03-29T07:00:31.166Z,8.10
2023-03-29T07:01:31.166Z,8.00
2023-03-29T07:02:31.085Z,8.40
2023-03-29T07:03:31.058Z,8.00
2023-03-29T07:04:31.068Z,7.00
2023-03-29T07:05:31.017Z,7.50
2023-03-29T07:06:31.028Z,7.50
2023-03-29T07:07:31.088Z,6.80
2023-03-29T07:08:31.257Z,6.90
2023-03-29T07:09:30.983Z,7.30
2023-03-29T07:10:30.977Z,8.00
2023-03-29T07:11:30.987Z,8.20
2023-03-29T07:12:30.958Z,8.10
2023-03-29T07:13:31.003Z,7.90
2023-03-29T07:14:30.943Z,8.70
2023-03-29T07:15:30.947Z,8.90
2023-03-29T07:16:30.980Z,10.60
2023-03-29T07:17:30.927Z,12.30
2023-03-29T07:18:30.912Z,9.90
2023-03-29T07:19:30.901Z,9.70
2023-03-29T07:20:30.899Z,10.70
2023-03-29T07:21:31.023Z,10.80
2023-03-29T07:22:30.878Z,9.70
2023-03-29T07:23:30.873Z,7.70
2023-03-29T07:24:30.870Z,7.50
2023-03-29T07:25:30.868Z,6.60
2023-03-29T07:26:30.868Z,7.50
2023-03-29T07:27:30.834Z,7.40
2023-03-29T07:28:30.833Z,7.10
2023-03-29T07:29:30.861Z,7.10
2023-03-29T07:30:32.007Z,6.80
2023-03-29T07:31:31.927Z,6.00
2023-03-29T07:32:30.857Z,7.00
2023-03-29T07:33:30.862Z,7.50
2023-03-29T07:34:30.848Z,5.80
2023-03-29T07:35:30.945Z,7.10
2023-03-29T07:36:30.790Z,6.20
2023-03-29T07:37:30.758Z,6.20
2023-03-29T07:38:30.760Z,5.80
2023-03-29T07:39:30.742Z,5.70
2023-03-29T07:40:30.757Z,6.00
2023-03-29T07:41:30.757Z,6.00
2023-03-29T07:42:30.720Z,5.70
2023-03-29T07:43:30.709Z,5.40
2023-03-29T07:44:30.701Z,6.20
2023-03-29T07:45:30.738Z,5.50
2023-03-29T07:46:30.704Z,5.30
2023-03-29T07:47:30.698Z,6.00
2023-03-29T07:48:30.719Z,6.00
2023-03-29T07:49:30.666Z,5.60
2023-03-29T07:50:30.659Z,6.20
2023-03-29T07:51:30.700Z,5.60
2023-03-29T07:52:30.654Z,5.10
2023-03-29T07:53:31.448Z,5.20
2023-03-29T07:54:30.626Z,5.00
2023-03-29T07:55:30.628Z,4.90
2023-03-29T07:56:30.661Z,4.70
2023-03-29T07:57:30.640Z,4.80
2023-03-29T07:58:30.606Z,4.80
2023-03-29T07:59:30.641Z,5.00
2023-03-29T08:00:30.628Z,4.90
2023-03-29T08:01:30.661Z,4.70
2023-03-29T08:02:30.616Z,5.30
2023-03-29T08:03:30.583Z,5.00
2023-03-29T08:04:30.657Z,5.60
2023-03-29T08:05:40.698Z,5.40
2023-03-29T08:06:32.571Z,5.30
2023-03-29T08:07:30.530Z,4.90
2023-03-29T08:08:30.529Z,5.20
2023-03-29T08:09:30.508Z,4.80
2023-03-29T08:10:30.510Z,5.00
2023-03-29T08:11:30.529Z,5.40
2023-03-29T08:12:30.497Z,5.90
2023-03-29T08:13:30.484Z,5.20
2023-03-29T08:14:30.472Z,4.90
2023-03-29T08:15:30.467Z,5.10
2023-03-29T08:16:30.509Z,5.40
2023-03-29T08:17:30.505Z,5.50
2023-03-29T08:18:32.777Z,5.00
2023-03-29T08:19:30.437Z,5.20
2023-03-29T08:20:30.434Z,5.10
2023-03-29T08:21:30.443Z,5.00
2023-03-29T08:22:30.416Z,5.10
2023-03-29T08:23:30.404Z,5.40
2023-03-29T08:24:30.398Z,5.20
2023-03-29T08:25:30.414Z,5.40
2023-03-29T08:26:30.443Z,6.00
2023-03-29T08:27:30.380Z,5.40
2023-03-29T08:28:30.396Z,7.60
2023-03-29T08:29:30.364Z,5.90
2023-03-29T08:30:30.345Z,4.90
2023-03-29T08:31:30.381Z,4.80
2023-03-29T08:32:30.382Z,5.70
2023-03-29T08:33:30.326Z,7.80
2023-03-29T08:34:30.423Z,5.00
2023-03-29T08:35:30.309Z,6.80
2023-03-29T08:36:30.307Z,4.90
2023-03-29T08:37:30.327Z,4.40
2023-03-29T08:38:30.293Z,4.60
2023-03-29T08:39:30.279Z,4.70
2023-03-29T08:40:30.298Z,4.40
2023-03-29T08:41:30.280Z,5.60
2023-03-29T08:42:30.313Z,4.30
2023-03-29T08:43:30.252Z,4.70
2023-03-29T08:44:30.243Z,8.00
2023-03-29T08:45:30.243Z,7.00
2023-03-29T08:46:35.125Z,9.20
2023-03-29T08:47:32.267Z,5.00
2023-03-29T08:48:30.209Z,7.20
2023-03-29T08:49:31.203Z,6.20
2023-03-29T08:50:30.200Z,7.70
2023-03-29T08:51:30.195Z,5.90
2023-03-29T08:52:30.212Z,7.70
2023-03-29T08:53:30.182Z,5.00
2023-03-29T08:54:30.160Z,5.50
2023-03-29T08:55:30.144Z,4.90
2023-03-29T08:56:34.009Z,5.80
2023-03-29T08:57:31.169Z,7.60
2023-03-29T08:58:30.134Z,6.40
2023-03-29T08:59:30.165Z,6.40
2023-03-29T09:00:30.112Z,6.50
2023-03-29T09:01:30.177Z,4.70
2023-03-29T09:02:30.193Z,4.70
2023-03-29T09:03:30.152Z,5.80
2023-03-29T09:04:30.105Z,6.00
2023-03-29T09:05:30.975Z,6.60
2023-03-29T09:06:30.085Z,6.20
2023-03-29T09:07:30.082Z,9.00
2023-03-29T09:08:30.050Z,6.90
2023-03-29T09:09:30.035Z,6.00
2023-03-29T09:10:30.030Z,5.80
2023-03-29T09:11:30.076Z,5.10
2023-03-29T09:12:30.072Z,4.90
2023-03-29T09:13:30.071Z,6.00
2023-03-29T09:14:30.040Z,6.20
2023-03-29T09:15:30.009Z,8.30
2023-03-29T09:16:30.006Z,6.60
2023-03-29T09:17:30.051Z,5.20
2023-03-29T09:18:29.978Z,6.30
2023-03-29T09:19:29.959Z,7.20
2023-03-29T09:20:29.952Z,8.60
2023-03-29T09:21:29.949Z,5.20
2023-03-29T09:22:29.973Z,4.40
2023-03-29T09:23:29.927Z,5.60
2023-03-29T09:24:29.927Z,4.60
2023-03-29T09:25:32.962Z,5.50
2023-03-29T09:26:29.908Z,5.70
2023-03-29T09:27:29.914Z,5.10
2023-03-29T09:28:29.889Z,5.70
2023-03-29T09:29:29.891Z,6.10
2023-03-29T09:30:29.878Z,4.50
2023-03-29T09:31:29.930Z,4.30
2023-03-29T09:32:29.906Z,4.10
2023-03-29T09:33:29.838Z,4.50
2023-03-29T09:34:29.832Z,4.10
2023-03-29T09:35:29.866Z,4.30
2023-03-29T09:36:29.825Z,4.50
2023-03-29T09:37:29.892Z,4.00
2023-03-29T09:38:29.809Z,4.80
2023-03-29T09:39:29.822Z,5.50
2023-03-29T09:40:30.357Z,7.10
2023-03-29T09:41:29.782Z,7.50
2023-03-29T09:42:29.800Z,6.00
2023-03-29T09:43:29.767Z,4.80
2023-03-29T09:44:31.595Z,7.20
2023-03-29T09:45:30.776Z,6.40
2023-03-29T09:46:29.737Z,5.40
2023-03-29T09:47:29.773Z,5.70
2023-03-29T09:48:29.746Z,6.20
2023-03-29T09:49:29.753Z,5.00
2023-03-29T09:50:31.583Z,4.90
2023-03-29T09:51:30.705Z,5.90
2023-03-29T09:52:29.720Z,6.40
2023-03-29T09:53:29.698Z,5.00
2023-03-29T09:54:29.688Z,5.90
2023-03-29T09:55:29.669Z,6.40
2023-03-29T09:56:29.659Z,4.80
2023-03-29T09:57:29.741Z,4.70
2023-03-29T09:58:29.649Z,4.50
2023-03-29T09:59:29.645Z,4.60
2023-03-29T10:00:29.654Z,4.80
2023-03-29T10:01:29.645Z,4.40
2023-03-29T10:02:29.662Z,4.30
2023-03-29T10:03:29.617Z,4.50
2023-03-29T10:04:29.683Z,4.30
2023-03-29T10:05:29.598Z,4.60
2023-03-29T10:06:29.586Z,5.10
2023-03-29T10:07:29.583Z,4.40
2023-03-29T10:08:29.628Z,5.20
2023-03-29T10:09:29.575Z,4.40
2023-03-29T10:10:29.572Z,4.20
2023-03-29T10:11:29.557Z,4.30
2023-03-29T10:12:29.558Z,4.30
2023-03-29T10:13:29.588Z,4.30
2023-03-29T10:14:29.537Z,4.30
2023-03-29T10:15:30.275Z,4.30
2023-03-29T10:16:30.584Z,4.10
2023-03-29T10:17:29.617Z,4.40
2023-03-29T10:18:29.531Z,4.70
2023-03-29T10:19:29.492Z,4.40
2023-03-29T10:20:29.483Z,4.60
2023-03-29T10:21:29.479Z,4.60
2023-03-29T10:22:29.486Z,4.40
2023-03-29T10:23:29.486Z,4.70
2023-03-29T10:24:29.461Z,4.50
2023-03-29T10:25:29.449Z,4.60
2023-03-29T10:26:29.447Z,5.90
2023-03-29T10:27:29.457Z,4.90
2023-03-29T10:28:29.459Z,4.80
2023-03-29T10:29:29.421Z,4.30
2023-03-29T10:30:29.409Z,4.50
2023-03-29T10:31:29.415Z,4.90
2023-03-29T10:32:29.439Z,5.30
2023-03-29T10:33:29.417Z,5.50
2023-03-29T10:34:29.378Z,5.50
2023-03-29T10:35:29.369Z,4.80
2023-03-29T10:36:29.370Z,4.90
2023-03-29T10:37:29.358Z,4.70
2023-03-29T10:38:29.386Z,4.30
2023-03-29T10:39:29.361Z,4.90
2023-03-29T10:40:29.343Z,5.10
2023-03-29T10:41:29.382Z,5.30
2023-03-29T10:42:29.354Z,5.40
2023-03-29T10:43:29.329Z,5.10
2023-03-29T10:44:31.536Z,4.90
2023-03-29T10:45:29.310Z,4.80
2023-03-29T10:46:29.388Z,5.30
2023-03-29T10:47:29.319Z,5.40
2023-03-29T10:48:29.300Z,4.20
2023-03-29T10:49:29.271Z,4.50
2023-03-29T10:50:29.259Z,4.40
2023-03-29T10:51:29.262Z,4.90
2023-03-29T10:52:29.238Z,5.30
2023-03-29T10:53:29.273Z,5.00
2023-03-29T10:54:29.233Z,4.40
2023-03-29T10:55:29.313Z,4.40
2023-03-29T10:56:29.226Z,4.80
2023-03-29T10:57:29.259Z,4.80
2023-03-29T10:58:29.231Z,5.30
2023-03-29T10:59:29.201Z,5.40
2023-03-29T11:00:29.209Z,4.90
2023-03-29T11:01:29.224Z,5.00
2023-03-29T11:02:29.294Z,5.10
2023-03-29T11:03:29.310Z,5.50
2023-03-29T11:04:29.154Z,5.20
2023-03-29T11:05:29.140Z,4.50
2023-03-29T11:06:29.157Z,3.90
2023-03-29T11:07:29.126Z,4.10
2023-03-29T11:08:31.213Z,3.70
2023-03-29T11:09:30.127Z,3.80
2023-03-29T11:10:29.104Z,3.80
2023-03-29T11:11:29.155Z,4.00
2023-03-29T11:12:29.092Z,3.80
2023-03-29T11:13:29.115Z,5.20
2023-03-29T11:14:29.075Z,4.30
2023-03-29T11:15:29.079Z,4.20
2023-03-29T11:16:29.055Z,4.00
2023-03-29T11:17:29.069Z,4.30
2023-03-29T11:18:29.081Z,4.40
2023-03-29T11:19:29.035Z,5.00
2023-03-29T11:20:29.030Z,5.10
2023-03-29T11:21:29.021Z,5.00
2023-03-29T11:22:29.018Z,4.20
2023-03-29T11:23:29.027Z,4.30
2023-03-29T11:24:28.996Z,4.10
2023-03-29T11:25:29.719Z,3.80
2023-03-29T11:26:29.986Z,4.40
2023-03-29T11:27:28.983Z,5.10
2023-03-29T11:28:28.999Z,4.30
2023-03-29T11:29:28.959Z,4.10
2023-03-29T11:30:28.944Z,3.90
2023-03-29T11:31:29.008Z,3.80
2023-03-29T11:32:28.965Z,4.00
2023-03-29T11:33:28.965Z,3.90
2023-03-29T11:34:28.923Z,3.70
2023-03-29T11:35:28.911Z,3.70
2023-03-29T11:36:28.906Z,4.00
2023-03-29T11:37:28.893Z,4.00
2023-03-29T11:38:28.927Z,4.10
2023-03-29T11:39:28.879Z,3.90
2023-03-29T11:40:28.879Z,4.00
2023-03-29T11:41:28.865Z,3.50
2023-03-29T11:42:28.869Z,3.60
2023-03-29T11:43:28.910Z,3.30
2023-03-29T11:44:28.849Z,3.50
2023-03-29T11:45:28.848Z,3.60
2023-03-29T11:46:28.881Z,3.60
2023-03-29T11:47:28.920Z,3.70
2023-03-29T11:48:28.847Z,3.50
2023-03-29T11:49:29.510Z,3.40
2023-03-29T11:50:28.794Z,3.60
2023-03-29T11:51:28.791Z,3.00
2023-03-29T11:52:28.793Z,3.70
2023-03-29T11:53:28.785Z,3.60
2023-03-29T11:54:28.801Z,3.60
2023-03-29T11:55:28.754Z,3.60
2023-03-29T11:56:28.748Z,3.80
2023-03-29T11:57:28.959Z,3.30
2023-03-29T11:58:29.394Z,3.80
2023-03-29T11:59:28.768Z,3.80
2023-03-29T12:00:28.734Z,3.70
2023-03-29T12:01:28.712Z,3.50
2023-03-29T12:02:28.805Z,3.60
2023-03-29T12:03:28.831Z,5.00
2023-03-29T12:04:28.808Z,5.10
2023-03-29T12:05:28.684Z,4.60
2023-03-29T12:06:28.684Z,4.30
2023-03-29T12:07:28.692Z,4.10
2023-03-29T12:08:28.743Z,4.50
2023-03-29T12:09:28.689Z,4.20
2023-03-29T12:10:28.654Z,3.90
2023-03-29T12:11:28.633Z,4.50
2023-03-29T12:12:28.639Z,5.40
2023-03-29T12:13:28.627Z,4.40
2023-03-29T12:14:28.639Z,4.30
2023-03-29T12:15:28.606Z,4.10
2023-03-29T12:16:28.657Z,6.30
2023-03-29T12:17:28.602Z,4.50
2023-03-29T12:18:28.587Z,4.30
2023-03-29T12:19:28.602Z,3.90
2023-03-29T12:20:28.586Z,4.40
2023-03-29T12:21:28.558Z,4.70
2023-03-29T12:22:28.558Z,3.80
2023-03-29T12:23:28.548Z,4.90
2023-03-29T12:24:28.565Z,4.80
2023-03-29T12:25:28.524Z,4.10
2023-03-29T12:26:29.529Z,5.20
2023-03-29T12:27:28.520Z,6.10
2023-03-29T12:28:28.542Z,4.00
2023-03-29T12:29:28.532Z,5.70
2023-03-29T12:30:28.494Z,6.40
2023-03-29T12:31:28.529Z,5.10
2023-03-29T12:32:28.490Z,5.40
2023-03-29T12:33:29.477Z,5.80
2023-03-29T12:34:28.497Z,4.80
2023-03-29T12:35:28.466Z,5.00
2023-03-29T12:36:28.459Z,4.50
2023-03-29T12:37:28.454Z,4.50
2023-03-29T12:38:30.704Z,3.80
2023-03-29T12:39:28.429Z,4.70
2023-03-29T12:40:28.472Z,4.60
2023-03-29T12:41:28.421Z,5.00
2023-03-29T12:42:28.432Z,4.20
2023-03-29T12:43:28.419Z,5.00
2023-03-29T12:44:28.389Z,4.90
2023-03-29T12:45:28.413Z,4.30
2023-03-29T12:46:28.451Z,4.40
2023-03-29T12:47:28.388Z,4.30
2023-03-29T12:48:28.355Z,3.80
2023-03-29T12:49:28.364Z,4.20
2023-03-29T12:50:28.347Z,6.00
2023-03-29T12:51:28.368Z,5.80
2023-03-29T12:52:28.408Z,5.20
2023-03-29T12:53:28.322Z,4.50
2023-03-29T12:54:28.391Z,3.90
2023-03-29T12:55:29.315Z,4.00
2023-03-29T12:56:28.331Z,4.30
2023-03-29T12:57:28.406Z,5.90
2023-03-29T12:58:28.311Z,5.00
2023-03-29T12:59:28.286Z,4.80
2023-03-29T13:00:28.270Z,5.00
2023-03-29T13:01:28.420Z,6.50
2023-03-29T13:02:28.335Z,8.50
2023-03-29T13:03:28.240Z,5.90
2023-03-29T13:04:28.240Z,5.70
2023-03-29T13:05:28.291Z,5.30
2023-03-29T13:06:28.245Z,4.50
2023-03-29T13:07:28.211Z,4.50
2023-03-29T13:08:28.203Z,4.00
2023-03-29T13:09:28.198Z,4.20
2023-03-29T13:10:28.189Z,5.60